Time;durP1;ratioP1;P1;durP2;ratioP2;P2;SDS_P1;SDS_P2;PMS_P1;PMS_P2;Temp;Humidity;BMP_temperature;BMP_pressure;BME280_temperature;BME280_humidity;BME280_pressure;Samples;Min_cycle;Max_cycle;Signal;HPM_P1;HPM_P2
2022/07/12 06:56:47;;;;;;;4.25;2.33;;;29.80;95.50;;;;;;4913569;29;20259;-76
2022/07/12 06:59:14;;;;;;;2.30;2.10;;;30.40;95.40;;;;;;4916223;29;20253;-76
2022/07/12 07:01:41;;;;;;;4.07;2.95;;;30.50;95.00;;;;;;4909183;29;20208;-78
2022/07/12 07:04:08;;;;;;;2.35;2.05;;;30.60;94.50;;;;;;4915719;29;20288;-75
2022/07/12 07:06:34;;;;;;;3.17;2.47;;;30.30;94.90;;;;;;4904690;29;20229;-74
2022/07/12 07:09:01;;;;;;;2.72;2.33;;;30.50;94.30;;;;;;4916078;29;20212;-75
2022/07/12 07:11:28;;;;;;;2.65;2.38;;;31.00;93.60;;;;;;4910783;29;20237;-76
2022/07/12 07:13:56;;;;;;;2.72;2.15;;;31.20;93.10;;;;;;4915247;29;20292;-76
2022/07/12 07:16:24;;;;;;;2.60;2.03;;;31.00;93.70;;;;;;4916254;29;20216;-76
2022/07/12 07:18:51;;;;;;;2.65;2.20;;;31.20;93.20;;;;;;4915919;29;20272;-76
2022/07/12 07:21:17;;;;;;;3.40;2.50;;;31.20;93.50;;;;;;4903393;29;20264;-73
2022/07/12 07:23:44;;;;;;;4.18;2.30;;;31.10;93.20;;;;;;4915089;29;20225;-73
2022/07/12 07:26:11;;;;;;;2.38;2.17;;;31.50;92.90;;;;;;4914832;29;20680;-74
2022/07/12 07:30:52;;;;;;;3.08;2.42;;;31.50;93.30;;;;;;4914672;29;20244;-77
2022/07/12 07:31:25;;;;;;;2.47;2.20;;;31.80;92.50;;;;;;4914914;29;20546;-70
2022/07/12 07:33:52;;;;;;;2.47;2.13;;;31.80;91.90;;;;;;4915334;29;20218;-72
2022/07/12 07:36:19;;;;;;;2.33;1.95;;;31.60;92.10;;;;;;4915744;29;20205;-77
2022/07/12 07:38:46;;;;;;;2.80;2.50;;;31.30;92.00;;;;;;4915713;29;20210;-73
2022/07/12 07:41:13;;;;;;;3.20;2.30;;;30.80;92.10;;;;;;4915145;29;20660;-73
2022/07/12 07:43:42;;;;;;;2.70;2.00;;;30.80;92.10;;;;;;4915386;29;20320;-76
2022/07/12 07:46:08;;;;;;;2.92;1.98;;;30.80;92.40;;;;;;4914738;29;20217;-70
2022/07/12 07:48:38;;;;;;;3.00;2.30;;;31.10;92.10;;;;;;4915199;29;20241;-72
2022/07/12 07:51:05;;;;;;;2.33;2.10;;;31.50;91.70;;;;;;4914659;29;20210;-72
2022/07/12 07:53:32;;;;;;;3.92;2.33;;;31.20;91.90;;;;;;4915033;29;20229;-69
2022/07/12 07:55:59;;;;;;;2.15;1.95;;;31.40;91.80;;;;;;4916508;29;20217;-70
2022/07/12 07:58:26;;;;;;;2.40;2.10;;;31.90;92.00;;;;;;4920892;29;20312;-70
2022/07/12 08:00:53;;;;;;;2.10;1.80;;;31.30;92.10;;;;;;4920702;29;20292;-69
2022/07/12 08:03:20;;;;;;;2.92;2.20;;;31.00;91.90;;;;;;4920672;29;20248;-68
2022/07/12 08:05:50;;;;;;;3.80;2.17;;;30.60;92.50;;;;;;4920567;29;20976;-70
2022/07/12 08:08:18;;;;;;;3.33;2.20;;;30.10;92.80;;;;;;4920421;29;20641;-68
2022/07/12 08:10:45;;;;;;;2.53;2.10;;;30.60;92.70;;;;;;4920704;29;20214;-69
2022/07/12 08:13:12;;;;;;;2.08;1.83;;;30.80;92.80;;;;;;4920603;29;20236;-70
2022/07/12 08:15:39;;;;;;;3.42;2.20;;;31.10;92.00;;;;;;4920636;29;20206;-69
2022/07/12 08:18:06;;;;;;;2.88;2.30;;;30.80;92.00;;;;;;4920931;29;20576;-70
2022/07/12 08:20:33;;;;;;;2.42;2.05;;;30.70;92.10;;;;;;4920844;29;20214;-70
2022/07/12 08:23:01;;;;;;;3.15;2.30;;;30.60;92.00;;;;;;4920724;29;20726;-72
2022/07/12 08:25:28;;;;;;;3.10;2.47;;;30.50;91.90;;;;;;4920613;29;20206;-70
2022/07/12 08:27:55;;;;;;;3.20;2.42;;;30.60;92.60;;;;;;4920387;29;20241;-71
2022/07/12 08:30:22;;;;;;;2.20;2.00;;;30.60;92.00;;;;;;4920209;29;20213;-70
2022/07/12 08:32:48;;;;;;;2.58;2.00;;;30.80;92.10;;;;;;4920109;29;20233;-73
2022/07/12 08:35:15;;;;;;;2.78;2.30;;;30.20;92.30;;;;;;4920196;29;20214;-70
2022/07/12 08:37:43;;;;;;;2.53;1.98;;;30.40;92.90;;;;;;4920121;29;20221;-71
2022/07/12 08:40:11;;;;;;;2.22;1.98;;;30.30;91.40;;;;;;4920152;29;20209;-71
2022/07/12 08:42:42;;;;;;;3.72;1.90;;;29.60;92.20;;;;;;4919677;29;20236;-70
2022/07/12 08:45:10;;;;;;;2.85;2.13;;;29.70;92.30;;;;;;4919818;29;20220;-70
2022/07/12 08:47:38;;;;;;;3.47;2.13;;;29.80;92.10;;;;;;4919974;29;20237;-71
2022/07/12 08:50:13;;;;;;;2.63;1.90;;;30.30;92.80;;;;;;4920104;29;20217;-71
2022/07/12 08:52:41;;;;;;;2.78;1.92;;;30.80;91.90;;;;;;4919804;29;20229;-71
2022/07/12 08:55:22;;;;;;;2.15;1.95;;;30.60;91.70;;;;;;4919801;29;20224;-71
2022/07/12 08:57:49;;;;;;;2.55;1.85;;;30.20;91.60;;;;;;4919320;29;20217;-70
2022/07/12 09:00:16;;;;;;;3.92;2.10;;;30.40;91.70;;;;;;4919598;29;20686;-72
2022/07/12 09:02:50;;;;;;;3.03;2.00;;;29.70;91.70;;;;;;4919776;29;20329;-70
2022/07/12 09:05:18;;;;;;;2.75;2.05;;;29.20;92.30;;;;;;4919614;29;20215;-71
2022/07/12 09:07:46;;;;;;;2.72;1.90;;;29.30;93.10;;;;;;4919320;29;20233;-70
2022/07/12 09:10:13;;;;;;;2.70;1.95;;;29.60;92.80;;;;;;4919380;29;20205;-70
2022/07/12 09:12:43;;;;;;;3.50;2.00;;;29.80;93.30;;;;;;4919662;29;20657;-72
2022/07/12 09:15:15;;;;;;;2.35;2.00;;;30.50;92.70;;;;;;4919366;29;20296;-71
2022/07/12 09:17:46;;;;;;;2.33;2.00;;;30.50;91.40;;;;;;4919316;29;20213;-69
2022/07/12 09:20:13;;;;;;;2.38;1.92;;;30.40;91.20;;;;;;4919475;29;20554;-70
2022/07/12 09:22:52;;;;;;;2.75;2.17;;;30.90;91.20;;;;;;4918879;29;20234;-71
2022/07/12 09:25:19;;;;;;;2.80;1.90;;;31.30;91.30;;;;;;4919340;29;20217;-70
2022/07/12 09:27:52;;;;;;;2.53;1.98;;;31.00;91.30;;;;;;4918862;29;20292;-70
2022/07/12 09:30:20;;;;;;;2.35;1.85;;;30.90;92.70;;;;;;4919330;29;20265;-71
2022/07/12 09:38:24;;;;;;;2.38;1.90;;;31.00;90.80;;;;;;4919034;29;20343;-70
2022/07/12 09:40:51;;;;;;;3.10;2.38;;;31.40;90.90;;;;;;4919291;29;20209;-70
2022/07/12 09:43:20;;;;;;;2.38;2.08;;;30.70;91.60;;;;;;4918891;29;20233;-71
2022/07/12 09:45:48;;;;;;;2.03;1.83;;;30.50;91.70;;;;;;4918940;29;20220;-70
2022/07/12 09:48:16;;;;;;;2.05;1.85;;;30.80;92.10;;;;;;4918997;29;20241;-72
2022/07/12 09:50:48;;;;;;;1.63;1.52;;;31.00;90.50;;;;;;4919079;29;20283;-71
2022/07/12 09:53:23;;;;;;;3.75;1.70;;;30.80;90.80;;;;;;4918864;29;20394;-70
2022/07/12 09:55:54;;;;;;;2.92;1.77;;;30.20;90.80;;;;;;4918767;29;20217;-70
2022/07/12 09:58:27;;;;;;;1.95;1.48;;;29.50;91.00;;;;;;4918838;29;20220;-70
2022/07/12 10:00:54;;;;;;;2.00;1.60;;;29.30;91.00;;;;;;4918749;29;20248;-71
2022/07/12 10:03:23;;;;;;;2.22;1.95;;;29.80;91.10;;;;;;4918389;29;20233;-70
2022/07/12 10:05:52;;;;;;;2.88;1.83;;;30.20;91.80;;;;;;4920899;29;20728;-70
2022/07/12 10:08:21;;;;;;;2.30;1.77;;;30.30;91.10;;;;;;4920187;29;20248;-70
2022/07/12 10:10:49;;;;;;;2.17;1.55;;;30.60;91.30;;;;;;4920186;29;20673;-69
2022/07/12 10:13:16;;;;;;;1.75;1.55;;;30.70;90.20;;;;;;4920251;29;20240;-69
2022/07/12 10:15:47;;;;;;;2.25;1.70;;;30.60;91.10;;;;;;4919385;29;20209;-71
2022/07/12 10:18:18;;;;;;;2.15;1.95;;;30.50;90.90;;;;;;4917721;29;20216;-71
2022/07/12 10:20:46;;;;;;;2.40;1.73;;;30.00;91.10;;;;;;4918098;29;20665;-71
2022/07/12 10:23:34;;;;;;;1.85;1.50;;;29.70;91.20;;;;;;4918120;29;20825;-71
2022/07/12 10:26:02;;;;;;;1.50;1.38;;;29.50;91.10;;;;;;4918048;29;20592;-70
2022/07/12 10:28:56;;;;;;;1.52;1.42;;;29.10;92.10;;;;;;4918027;29;20237;-70
2022/07/12 10:31:28;;;;;;;1.88;1.35;;;29.10;92.00;;;;;;4917979;29;20584;-72
2022/07/12 10:34:14;;;;;;;1.73;1.45;;;29.10;91.50;;;;;;4917793;29;20205;-69
2022/07/12 10:37:19;;;;;;;1.42;1.30;;;28.80;91.60;;;;;;4917552;29;20209;-71
2022/07/12 10:40:13;;;;;;;1.70;1.33;;;28.70;92.70;;;;;;4915649;29;20206;-70
2022/07/12 10:42:40;;;;;;;1.70;1.58;;;28.60;91.60;;;;;;4917979;29;20328;-70
2022/07/12 10:45:13;;;;;;;2.05;1.45;;;28.60;93.20;;;;;;4918064;29;20210;-72
2022/07/12 10:48:06;;;;;;;2.38;1.90;;;28.80;93.20;;;;;;4917882;29;20273;-71
2022/07/12 10:51:13;;;;;;;1.95;1.52;;;28.60;93.10;;;;;;4904067;29;20224;-71
2022/07/12 10:53:42;;;;;;;2.28;1.50;;;28.90;92.30;;;;;;4859594;29;20232;-69
2022/07/12 10:56:17;;;;;;;1.70;1.40;;;29.30;92.40;;;;;;4908462;29;20704;-70
2022/07/12 10:58:47;;;;;;;1.30;1.20;;;29.10;91.50;;;;;;4917592;29;20211;-71
2022/07/12 11:01:15;;;;;;;1.67;1.58;;;29.00;91.40;;;;;;4917730;29;20580;-71
2022/07/12 11:03:46;;;;;;;4.85;1.88;;;28.70;92.20;;;;;;4917680;29;20239;-70
2022/07/12 11:06:15;;;;;;;1.40;1.30;;;28.80;91.50;;;;;;4917655;29;20646;-72
2022/07/12 11:08:53;;;;;;;1.35;1.25;;;29.10;91.90;;;;;;4917427;29;20247;-71
2022/07/12 11:11:21;;;;;;;1.92;1.50;;;29.20;91.70;;;;;;4917131;29;20694;-70
2022/07/12 11:13:48;;;;;;;2.42;1.60;;;29.00;91.60;;;;;;4917446;29;20268;-71
2022/07/12 11:16:16;;;;;;;3.63;1.45;;;28.70;92.40;;;;;;4917359;29;20292;-70
2022/07/12 11:18:45;;;;;;;2.08;1.42;;;28.70;91.80;;;;;;4917428;29;20209;-70
2022/07/12 11:21:12;;;;;;;4.70;1.40;;;28.70;92.70;;;;;;4917377;29;20216;-71
2022/07/12 11:23:40;;;;;;;3.28;1.50;;;28.90;92.50;;;;;;4917635;29;20230;-71
2022/07/12 11:26:09;;;;;;;2.72;1.40;;;28.80;91.80;;;;;;4917055;29;20219;-72
2022/07/12 11:28:36;;;;;;;1.88;1.67;;;28.90;92.60;;;;;;4917027;29;20244;-70
2022/07/12 11:31:04;;;;;;;1.80;1.42;;;28.90;92.30;;;;;;4917059;29;20698;-71
2022/07/12 11:33:33;;;;;;;1.50;1.25;;;28.90;91.50;;;;;;4916955;29;20601;-70
2022/07/12 11:36:03;;;;;;;2.50;1.17;;;28.70;91.00;;;;;;4916932;29;20561;-70
2022/07/12 11:38:30;;;;;;;3.25;1.30;;;28.60;91.40;;;;;;4917025;29;20214;-71
2022/07/12 11:40:58;;;;;;;2.25;1.67;;;28.80;92.00;;;;;;4917025;29;20240;-71
2022/07/12 11:43:26;;;;;;;2.78;1.60;;;28.90;92.50;;;;;;4916590;29;20427;-70
2022/07/12 11:45:53;;;;;;;2.50;1.38;;;28.90;92.80;;;;;;4916791;29;20660;-70
2022/07/12 11:48:20;;;;;;;1.48;1.20;;;29.00;92.10;;;;;;4916835;29;20239;-71
2022/07/12 11:50:51;;;;;;;1.55;1.30;;;29.00;91.40;;;;;;4916836;29;20304;-71
2022/07/12 11:53:20;;;;;;;1.35;1.10;;;28.90;91.10;;;;;;4916879;29;20233;-70
2022/07/12 11:55:48;;;;;;;1.55;1.30;;;29.00;90.70;;;;;;4916365;29;20316;-70
2022/07/12 11:58:16;;;;;;;1.90;1.40;;;28.90;90.90;;;;;;4916706;29;20213;-70
2022/07/12 12:00:44;;;;;;;1.80;1.17;;;28.80;91.00;;;;;;4916635;29;20213;-69
2022/07/12 12:03:11;;;;;;;1.70;1.35;;;28.70;91.90;;;;;;4916381;29;20236;-69
2022/07/12 12:05:38;;;;;;;2.08;1.52;;;28.80;92.50;;;;;;4916608;29;20216;-69
2022/07/12 12:08:06;;;;;;;2.00;1.40;;;28.80;91.10;;;;;;4916709;29;20214;-69
2022/07/12 12:10:35;;;;;;;2.13;1.35;;;28.70;90.40;;;;;;4916695;29;20213;-71
2022/07/12 12:13:03;;;;;;;1.60;1.30;;;28.80;90.70;;;;;;4916398;29;20596;-71
2022/07/12 12:15:32;;;;;;;2.00;1.30;;;28.90;90.90;;;;;;4916795;29;20211;-70
2022/07/12 12:18:00;;;;;;;3.22;1.67;;;28.90;87.90;;;;;;4916773;29;20228;-70
2022/07/12 12:20:29;;;;;;;1.60;1.20;;;29.10;89.70;;;;;;4916758;29;20304;-70
2022/07/12 12:22:59;;;;;;;3.92;1.50;;;29.20;90.50;;;;;;4916454;29;20233;-71
2022/07/12 12:25:28;;;;;;;1.40;1.20;;;29.40;90.90;;;;;;4916804;29;20217;-69
2022/07/12 12:27:59;;;;;;;1.65;1.10;;;29.50;88.00;;;;;;4916441;29;20209;-71
2022/07/12 12:30:28;;;;;;;1.48;1.15;;;29.50;86.00;;;;;;4916775;29;20213;-71
2022/07/12 12:32:56;;;;;;;1.40;1.25;;;29.70;85.40;;;;;;4916402;29;20239;-70
2022/07/12 12:35:30;;;;;;;2.75;1.30;;;29.70;86.20;;;;;;4916280;29;20665;-71
2022/07/12 12:37:58;;;;;;;1.80;1.42;;;29.90;88.50;;;;;;4916638;29;20220;-71
2022/07/12 12:40:27;;;;;;;3.80;1.10;;;29.90;88.00;;;;;;4916476;29;20206;-69
2022/07/12 12:43:08;;;;;;;1.90;1.10;;;30.00;87.80;;;;;;4919222;29;20229;-71
2022/07/12 12:45:35;;;;;;;3.42;1.50;;;29.80;86.60;;;;;;4920111;29;20220;-71
2022/07/12 12:48:04;;;;;;;1.52;1.23;;;29.80;87.40;;;;;;4919879;29;20210;-70
2022/07/12 12:50:41;;;;;;;2.40;1.55;;;29.80;86.90;;;;;;4919823;29;20206;-71
2022/07/12 12:53:10;;;;;;;1.40;1.20;;;29.90;86.20;;;;;;4919855;29;20240;-70
2022/07/12 12:55:38;;;;;;;1.77;1.42;;;30.00;85.80;;;;;;4919633;29;20224;-70
2022/07/12 12:58:05;;;;;;;1.52;1.42;;;30.30;86.40;;;;;;4919809;29;20216;-71
2022/07/12 13:00:35;;;;;;;1.75;1.30;;;30.50;85.30;;;;;;4919877;29;20209;-71
2022/07/12 13:03:02;;;;;;;1.63;1.20;;;30.60;86.80;;;;;;4919324;29;20320;-69
2022/07/12 13:05:29;;;;;;;1.63;1.17;;;30.50;85.90;;;;;;4919332;29;20300;-70
2022/07/12 13:07:56;;;;;;;2.50;1.40;;;30.50;85.00;;;;;;4919373;29;20220;-71
2022/07/12 13:10:23;;;;;;;1.95;1.25;;;30.60;84.30;;;;;;4919498;29;20261;-70
2022/07/12 13:12:51;;;;;;;1.75;1.40;;;30.80;85.70;;;;;;4919095;29;20238;-71
2022/07/12 13:15:18;;;;;;;1.92;1.15;;;30.80;84.90;;;;;;4919235;29;20205;-71
2022/07/12 13:17:47;;;;;;;1.35;1.10;;;30.90;85.40;;;;;;4919620;29;20215;-70
2022/07/12 13:20:15;;;;;;;1.50;1.10;;;30.80;84.10;;;;;;4919548;29;20304;-73
2022/07/12 13:22:42;;;;;;;1.88;1.42;;;30.40;83.90;;;;;;4919455;29;20229;-72
2022/07/12 13:25:11;;;;;;;1.40;1.10;;;30.50;81.40;;;;;;4919525;29;20206;-71
2022/07/12 13:27:40;;;;;;;2.40;1.58;;;30.80;79.40;;;;;;4919046;29;20210;-71
2022/07/12 13:30:09;;;;;;;2.90;1.35;;;30.90;77.70;;;;;;4919314;29;20273;-70
2022/07/12 13:32:37;;;;;;;1.92;1.15;;;31.10;77.30;;;;;;4918417;29;20700;-71
2022/07/12 13:35:07;;;;;;;1.63;1.20;;;31.10;81.00;;;;;;4918268;29;20600;-70
2022/07/12 13:37:34;;;;;;;3.35;1.70;;;31.10;80.00;;;;;;4918798;29;20213;-72
2022/07/12 13:40:17;;;;;;;1.83;1.08;;;31.10;80.40;;;;;;4919149;29;20237;-71
2022/07/12 13:42:46;;;;;;;1.10;1.00;;;31.00;79.70;;;;;;4918780;29;20328;-73
2022/07/12 13:45:15;;;;;;;1.85;1.05;;;30.90;80.20;;;;;;4918828;29;20569;-71
2022/07/12 13:47:43;;;;;;;2.13;1.10;;;30.90;80.80;;;;;;4918947;29;20209;-70
2022/07/12 13:50:14;;;;;;;1.38;1.10;;;30.90;79.20;;;;;;4918901;29;20328;-71
2022/07/12 13:52:43;;;;;;;0.90;0.75;;;31.00;77.90;;;;;;4918020;29;20233;-70
2022/07/12 13:55:10;;;;;;;1.58;1.15;;;30.90;80.20;;;;;;4918188;29;20221;-70
2022/07/12 13:57:38;;;;;;;2.35;1.30;;;30.80;77.00;;;;;;4918449;29;20214;-73
2022/07/12 14:00:08;;;;;;;1.10;0.90;;;30.90;77.40;;;;;;4918767;29;20304;-71
2022/07/12 14:02:36;;;;;;;1.42;1.02;;;30.80;76.00;;;;;;4918571;29;20233;-70
2022/07/12 14:05:04;;;;;;;2.00;1.52;;;30.50;79.30;;;;;;4918750;29;20685;-70
2022/07/12 14:07:32;;;;;;;2.33;1.40;;;30.30;80.30;;;;;;4918586;29;20209;-70
2022/07/12 14:10:00;;;;;;;1.10;1.00;;;30.10;81.30;;;;;;4918398;29;20593;-71
2022/07/12 14:12:27;;;;;;;1.00;0.82;;;29.90;81.60;;;;;;4918228;29;20649;-70
2022/07/12 14:17:38;;;;;;;1.88;1.10;;;29.90;78.00;;;;;;4918368;29;20212;-72
2022/07/12 14:20:07;;;;;;;3.03;1.00;;;30.10;80.10;;;;;;4918373;29;20309;-71
2022/07/12 14:22:36;;;;;;;2.22;1.02;;;30.20;81.00;;;;;;4918142;29;20312;-70
2022/07/12 14:25:03;;;;;;;1.55;1.20;;;30.40;83.20;;;;;;4917940;29;20664;-70
2022/07/12 14:27:30;;;;;;;1.40;1.05;;;30.50;81.20;;;;;;4917763;29;20210;-70
2022/07/12 14:29:57;;;;;;;1.60;1.20;;;30.50;81.10;;;;;;4917727;29;20241;-72
2022/07/12 14:32:24;;;;;;;1.60;1.30;;;30.20;80.70;;;;;;4917267;29;20232;-70
2022/07/12 14:34:51;;;;;;;2.75;1.15;;;30.40;81.40;;;;;;4917390;29;20205;-70
2022/07/12 14:37:18;;;;;;;1.70;1.00;;;30.40;81.10;;;;;;4917950;29;20210;-71
2022/07/12 14:39:48;;;;;;;1.40;0.95;;;30.50;80.60;;;;;;4917811;29;20216;-70
2022/07/12 14:42:15;;;;;;;1.55;1.30;;;30.40;80.40;;;;;;4918031;29;20260;-70
2022/07/12 14:44:42;;;;;;;1.73;1.20;;;30.20;79.80;;;;;;4917890;29;20220;-71
2022/07/12 14:47:09;;;;;;;1.92;1.15;;;30.20;79.80;;;;;;4917789;29;20221;-70
2022/07/12 14:49:36;;;;;;;0.95;0.85;;;30.20;80.30;;;;;;4917719;29;20238;-69
2022/07/12 14:52:04;;;;;;;1.77;1.38;;;30.10;78.00;;;;;;4917520;29;20237;-70
2022/07/12 14:54:30;;;;;;;1.60;1.20;;;30.20;80.20;;;;;;4917720;29;20209;-70
2022/07/12 14:56:59;;;;;;;2.30;1.20;;;30.40;78.80;;;;;;4917439;29;20211;-71
2022/07/12 14:59:26;;;;;;;1.65;1.30;;;30.50;78.80;;;;;;4917503;29;20222;-70
2022/07/12 15:01:53;;;;;;;1.45;1.10;;;30.50;78.50;;;;;;4917496;29;20234;-71
2022/07/12 15:04:20;;;;;;;1.50;1.08;;;30.60;78.70;;;;;;4917241;29;20218;-71
2022/07/12 15:06:47;;;;;;;1.67;1.20;;;30.70;74.00;;;;;;4917614;29;20304;-71
2022/07/12 15:09:14;;;;;;;6.72;2.40;;;30.90;75.30;;;;;;4917597;29;20319;-71
2022/07/12 15:11:41;;;;;;;3.70;1.52;;;31.00;77.40;;;;;;4917248;29;20215;-70
2022/07/12 15:14:09;;;;;;;1.48;1.13;;;31.20;76.90;;;;;;4917387;29;20210;-72
2022/07/12 15:16:36;;;;;;;1.33;1.15;;;31.30;80.60;;;;;;4917149;29;20657;-70
2022/07/12 15:19:03;;;;;;;1.60;1.15;;;31.30;76.00;;;;;;4917433;29;20244;-70
2022/07/12 15:21:30;;;;;;;1.65;0.90;;;31.10;76.00;;;;;;4917548;29;20209;-69
2022/07/12 15:23:57;;;;;;;1.90;1.20;;;31.20;77.20;;;;;;4917282;29;20665;-69
2022/07/12 15:26:24;;;;;;;0.90;0.82;;;31.40;74.90;;;;;;4917207;29;20296;-70
2022/07/12 15:28:52;;;;;;;1.83;0.80;;;31.60;75.00;;;;;;4916901;29;20304;-70
2022/07/12 15:31:21;;;;;;;0.60;0.60;;;31.60;68.80;;;;;;4917142;29;20217;-70
2022/07/12 15:33:48;;;;;;;0.80;0.75;;;31.70;69.90;;;;;;4916776;29;20236;-72
2022/07/12 15:36:15;;;;;;;1.88;0.70;;;31.70;69.20;;;;;;4916939;29;20748;-70
2022/07/12 15:38:43;;;;;;;1.35;1.10;;;32.10;67.80;;;;;;4916881;29;20538;-71
2022/07/12 15:41:10;;;;;;;1.63;1.00;;;32.20;68.00;;;;;;4917026;29;20221;-71
2022/07/12 15:43:38;;;;;;;1.30;0.80;;;32.30;69.30;;;;;;4916945;29;20259;-72
2022/07/12 15:46:05;;;;;;;3.60;1.15;;;32.30;69.00;;;;;;4916839;29;20219;-70
2022/07/12 15:48:34;;;;;;;1.50;1.05;;;32.30;69.60;;;;;;4917101;29;20217;-70
2022/07/12 15:51:00;;;;;;;1.10;1.00;;;32.20;70.00;;;;;;4916802;29;20327;-71
2022/07/12 15:53:30;;;;;;;1.40;1.00;;;31.90;65.90;;;;;;4916597;29;20718;-71
2022/07/12 15:56:01;;;;;;;1.05;0.90;;;31.90;68.70;;;;;;4916762;29;20217;-71
2022/07/12 15:58:30;;;;;;;0.93;0.75;;;32.10;72.30;;;;;;4916781;29;20209;-71
2022/07/12 16:00:58;;;;;;;3.10;0.98;;;32.10;67.50;;;;;;4916982;29;20312;-71
2022/07/12 16:03:25;;;;;;;1.00;0.77;;;32.20;71.00;;;;;;4916714;29;20240;-71
2022/07/12 16:05:55;;;;;;;2.42;1.00;;;32.20;71.20;;;;;;4916337;29;20217;-71
2022/07/12 16:08:22;;;;;;;1.20;1.00;;;32.20;70.40;;;;;;4916707;29;20209;-71
2022/07/12 16:10:49;;;;;;;1.40;1.00;;;32.10;71.70;;;;;;4916605;29;20331;-71
2022/07/12 16:13:16;;;;;;;1.70;1.02;;;32.10;71.50;;;;;;4916306;29;20244;-70
2022/07/12 16:15:43;;;;;;;1.35;0.95;;;32.10;69.70;;;;;;4916705;29;20205;-71
2022/07/12 16:18:10;;;;;;;1.75;0.93;;;32.10;71.40;;;;;;4919966;29;20218;-72
2022/07/12 16:20:37;;;;;;;2.05;0.90;;;31.90;71.60;;;;;;4920366;29;20308;-70
2022/07/12 16:23:06;;;;;;;1.40;0.95;;;31.90;72.70;;;;;;4920096;29;20633;-71
2022/07/12 16:25:33;;;;;;;1.00;0.80;;;32.00;73.80;;;;;;4920329;29;20206;-70
2022/07/12 16:28:00;;;;;;;1.00;0.75;;;31.90;71.40;;;;;;4920172;29;20248;-70
2022/07/12 16:30:27;;;;;;;1.58;1.08;;;31.80;75.20;;;;;;4920236;29;20241;-70
2022/07/12 16:32:55;;;;;;;2.00;1.48;;;31.60;71.00;;;;;;4920057;29;20225;-70
2022/07/12 16:35:22;;;;;;;2.17;1.08;;;31.70;73.10;;;;;;4920043;29;20292;-70
2022/07/12 16:37:49;;;;;;;0.88;0.75;;;31.90;72.30;;;;;;4920195;29;20572;-70
2022/07/12 16:40:17;;;;;;;1.88;1.30;;;31.80;70.40;;;;;;4920213;29;20212;-70
2022/07/12 16:42:44;;;;;;;1.42;0.93;;;31.70;70.80;;;;;;4919693;29;20229;-70
2022/07/12 16:45:12;;;;;;;1.85;1.10;;;31.70;71.30;;;;;;4920193;29;20220;-70
2022/07/12 16:47:39;;;;;;;1.55;0.98;;;31.60;73.10;;;;;;4919889;29;20209;-70
2022/07/12 16:50:07;;;;;;;1.17;0.82;;;31.50;72.60;;;;;;4919969;29;20241;-70
2022/07/12 16:52:34;;;;;;;3.92;1.33;;;31.50;71.20;;;;;;4919521;29;20237;-69
2022/07/12 16:55:01;;;;;;;1.08;0.88;;;31.50;71.40;;;;;;4919643;29;20224;-70
2022/07/12 16:57:30;;;;;;;1.17;0.82;;;31.60;71.10;;;;;;4919823;29;20206;-71
2022/07/12 16:59:57;;;;;;;1.80;0.95;;;31.70;70.60;;;;;;4919867;29;20261;-70
2022/07/12 17:02:24;;;;;;;1.13;0.80;;;31.60;70.90;;;;;;4913857;29;20218;-72
2022/07/12 17:04:51;;;;;;;1.77;1.02;;;31.60;70.80;;;;;;4909360;29;20628;-74
2022/07/12 17:07:18;;;;;;;1.30;0.95;;;31.60;71.30;;;;;;4902620;29;20202;-71
2022/07/12 17:09:45;;;;;;;1.50;0.90;;;31.60;72.00;;;;;;4917954;29;20584;-76
2022/07/12 17:12:12;;;;;;;1.88;1.00;;;31.70;69.70;;;;;;4918090;29;20229;-71
2022/07/12 17:14:40;;;;;;;2.03;1.08;;;31.70;69.70;;;;;;4916559;29;20568;-72
2022/07/12 17:17:07;;;;;;;1.15;0.70;;;31.60;73.30;;;;;;4898926;29;20214;-71
2022/07/12 17:19:34;;;;;;;1.08;0.80;;;31.60;70.60;;;;;;4903219;29;20198;-72
2022/07/12 17:22:01;;;;;;;3.65;1.30;;;31.50;66.90;;;;;;4928247;29;20233;-72
2022/07/12 17:24:28;;;;;;;1.92;0.70;;;31.30;67.20;;;;;;4920424;29;20550;-69
2022/07/12 17:26:55;;;;;;;1.48;1.00;;;31.40;68.70;;;;;;4918144;29;20244;-73
2022/07/12 17:29:22;;;;;;;1.10;0.82;;;31.30;71.30;;;;;;4917846;29;20735;-69
2022/07/12 17:31:50;;;;;;;1.30;0.90;;;31.30;70.50;;;;;;4913649;29;20252;-70
2022/07/12 17:34:17;;;;;;;1.33;0.80;;;31.40;71.70;;;;;;4908393;29;20301;-72
2022/07/12 17:36:45;;;;;;;2.67;1.00;;;31.50;72.70;;;;;;4912018;29;20215;-69
2022/07/12 17:39:12;;;;;;;1.48;0.82;;;31.50;72.70;;;;;;4902953;29;20274;-70
2022/07/12 17:41:40;;;;;;;1.10;0.68;;;31.50;75.20;;;;;;4910262;29;20206;-69
2022/07/12 17:44:08;;;;;;;0.80;0.70;;;31.40;76.00;;;;;;4909178;29;20244;-69
2022/07/12 17:46:35;;;;;;;1.25;0.82;;;31.30;76.00;;;;;;4910549;29;20201;-70
2022/07/12 17:49:03;;;;;;;1.00;0.90;;;31.30;75.00;;;;;;4903833;29;20214;-69
2022/07/12 17:51:30;;;;;;;2.22;0.70;;;31.20;75.50;;;;;;4902754;29;20245;-70
2022/07/12 17:53:57;;;;;;;2.13;1.00;;;31.00;79.40;;;;;;4903517;29;20208;-71
2022/07/12 17:56:25;;;;;;;1.67;1.00;;;30.80;79.70;;;;;;4909758;29;20590;-69
2022/07/12 17:58:53;;;;;;;1.25;0.80;;;30.70;79.40;;;;;;4906920;29;20316;-70
2022/07/12 18:01:21;;;;;;;1.92;1.17;;;30.50;78.50;;;;;;4912992;29;20261;-70
2022/07/12 18:03:49;;;;;;;2.78;0.95;;;30.40;79.20;;;;;;4907853;29;20705;-68
2022/07/12 18:06:17;;;;;;;1.17;0.80;;;30.30;79.10;;;;;;4911516;29;20234;-71
2022/07/12 18:08:44;;;;;;;0.95;0.82;;;30.10;81.00;;;;;;4911999;29;20644;-70
2022/07/12 18:16:42;;;;;;;1.25;0.98;;;29.60;82.20;;;;;;4902573;29;20309;-72
2022/07/12 18:19:09;;;;;;;1.38;1.00;;;29.50;83.60;;;;;;4906619;29;20297;-71
2022/07/12 18:21:38;;;;;;;1.25;0.90;;;29.40;82.50;;;;;;4911326;29;20206;-71
2022/07/12 18:24:05;;;;;;;1.52;1.02;;;29.40;85.70;;;;;;4907050;29;20221;-71
2022/07/12 18:26:32;;;;;;;1.20;1.00;;;29.40;85.10;;;;;;4912972;29;20218;-71
2022/07/12 18:28:59;;;;;;;0.93;0.82;;;29.40;86.10;;;;;;4912350;29;20210;-71
2022/07/12 18:31:26;;;;;;;1.13;0.65;;;29.40;84.90;;;;;;4912365;29;20245;-71
2022/07/12 18:33:53;;;;;;;1.10;0.82;;;29.20;85.30;;;;;;4907129;29;20298;-71
2022/07/12 18:36:19;;;;;;;1.40;1.00;;;29.20;86.20;;;;;;4907575;29;20273;-70
2022/07/12 18:38:48;;;;;;;1.77;1.02;;;29.10;88.90;;;;;;4907787;29;20594;-70
2022/07/12 18:41:15;;;;;;;2.03;1.23;;;29.00;85.50;;;;;;4904513;29;20202;-71
2022/07/12 18:43:42;;;;;;;1.88;1.08;;;28.90;85.70;;;;;;4910724;29;20226;-72
2022/07/12 18:46:09;;;;;;;1.80;1.05;;;28.90;86.10;;;;;;4925762;29;20240;-72
2022/07/12 18:48:36;;;;;;;2.75;1.05;;;28.80;87.40;;;;;;4916306;29;20216;-71
2022/07/12 18:51:03;;;;;;;2.22;1.05;;;28.80;88.40;;;;;;4915557;29;20244;-71
2022/07/12 18:53:30;;;;;;;2.55;1.10;;;28.70;89.20;;;;;;4915055;23;20234;-77
2022/07/12 18:55:58;;;;;;;1.95;0.90;;;28.60;89.50;;;;;;4898018;29;20220;-75
2022/07/12 18:58:25;;;;;;;1.17;0.88;;;28.50;88.80;;;;;;4898487;29;20266;-77
2022/07/12 19:00:52;;;;;;;1.60;0.90;;;28.40;89.30;;;;;;4898496;29;20241;-76
2022/07/12 19:03:21;;;;;;;1.40;1.10;;;28.30;89.40;;;;;;4898282;29;20230;-76
2022/07/12 19:05:48;;;;;;;1.92;1.10;;;28.20;90.00;;;;;;4898749;29;20218;-75
2022/07/12 19:08:15;;;;;;;2.03;1.23;;;28.20;89.30;;;;;;4898085;29;20210;-75
2022/07/12 19:10:41;;;;;;;1.67;1.00;;;28.10;89.10;;;;;;4898342;29;20248;-75
2022/07/12 19:13:10;;;;;;;2.00;1.10;;;28.00;88.60;;;;;;4897685;29;20736;-75
2022/07/12 19:15:36;;;;;;;1.30;1.00;;;28.00;90.80;;;;;;4897750;29;20684;-74
2022/07/12 19:18:04;;;;;;;1.15;1.00;;;27.90;91.10;;;;;;4897947;29;20214;-76
2022/07/12 19:20:30;;;;;;;1.55;0.82;;;27.90;90.40;;;;;;4897424;29;20236;-76
2022/07/12 19:22:57;;;;;;;1.42;1.02;;;27.80;90.70;;;;;;4897666;29;20229;-77
2022/07/12 19:25:24;;;;;;;1.70;0.93;;;27.70;91.10;;;;;;4897878;29;20216;-77
2022/07/12 19:27:51;;;;;;;2.20;1.58;;;27.60;91.60;;;;;;4897450;29;20745;-74
2022/07/12 19:30:19;;;;;;;1.48;1.08;;;27.40;92.10;;;;;;4897621;29;20210;-75
2022/07/12 19:32:46;;;;;;;2.22;1.20;;;27.30;92.30;;;;;;4897367;29;20326;-68
2022/07/12 19:35:13;;;;;;;1.65;1.30;;;27.10;92.20;;;;;;4897495;29;20210;-74
2022/07/12 19:37:40;;;;;;;1.52;0.98;;;27.00;92.40;;;;;;4897875;29;20214;-76
2022/07/12 19:40:08;;;;;;;1.80;1.00;;;27.00;92.90;;;;;;4897836;29;20314;-73
2022/07/12 19:42:35;;;;;;;4.35;1.10;;;27.00;93.10;;;;;;4897419;29;20772;-75
2022/07/12 19:45:02;;;;;;;2.35;1.08;;;27.00;93.60;;;;;;4897483;29;20211;-75
2022/07/12 19:47:30;;;;;;;1.77;1.10;;;27.00;94.10;;;;;;4897551;29;20214;-75
2022/07/12 19:49:57;;;;;;;1.90;1.38;;;26.90;94.90;;;;;;4897722;29;20214;-75
2022/07/12 19:52:24;;;;;;;2.10;1.48;;;26.90;96.00;;;;;;4896675;29;20246;-75
2022/07/12 19:54:51;;;;;;;2.17;1.60;;;26.80;96.60;;;;;;4897823;29;20210;-75
2022/07/12 19:57:18;;;;;;;2.13;1.52;;;26.70;97.20;;;;;;4897546;29;20210;-73
2022/07/12 19:59:47;;;;;;;2.75;1.40;;;26.70;97.50;;;;;;4897672;29;20217;-75
2022/07/12 20:02:14;;;;;;;2.38;1.40;;;26.50;97.80;;;;;;4886076;29;20267;-76
2022/07/12 20:04:42;;;;;;;4.60;1.50;;;26.50;98.20;;;;;;4885705;29;20206;-68